sensor_id;sensor_type;location;lat;lon;timestamp;temperature;humidity
52899;DHT22;38763;53.096;6.062;2023-03-01T00:02:04;-0.50;99.90
52899;DHT22;38763;53.096;6.062;2023-03-01T00:04:30;-0.50;99.90
52899;DHT22;38763;53.096;6.062;2023-03-01T00:06:56;-0.40;99.90
52899;DHT22;38763;53.096;6.062;2023-03-01T00:09:22;-0.30;99.90
52899;DHT22;38763;53.096;6.062;2023-03-01T00:11:48;-0.40;99.90
52899;DHT22;38763;53.096;6.062;2023-03-01T00:14:14;-0.50;99.90
52899;DHT22;38763;53.096;6.062;2023-03-01T00:16:42;-0.50;99.90
52899;DHT22;38763;53.096;6.062;2023-03-01T00:19:13;-0.60;99.90
52899;DHT22;38763;53.096;6.062;2023-03-01T00:21:40;-0.50;99.90
52899;DHT22;38763;53.096;6.062;2023-03-01T00:24:05;-0.60;99.90
52899;DHT22;38763;53.096;6.062;2023-03-01T00:26:31;-0.60;99.90
52899;DHT22;38763;53.096;6.062;2023-03-01T00:28:58;-0.70;99.90
52899;DHT22;38763;53.096;6.062;2023-03-01T00:31:27;-0.60;99.90
52899;DHT22;38763;53.096;6.062;2023-03-01T00:33:57;-0.70;99.90
52899;DHT22;38763;53.096;6.062;2023-03-01T00:36:28;-0.70;99.90
52899;DHT22;38763;53.096;6.062;2023-03-01T00:38:55;-0.70;99.90
52899;DHT22;38763;53.096;6.062;2023-03-01T00:41:21;-0.80;99.90
52899;DHT22;38763;53.096;6.062;2023-03-01T00:43:49;-0.70;99.90
52899;DHT22;38763;53.096;6.062;2023-03-01T00:46:17;-0.80;99.90
52899;DHT22;38763;53.096;6.062;2023-03-01T00:48:43;-0.70;99.90
52899;DHT22;38763;53.096;6.062;2023-03-01T00:51:12;-0.80;99.90
52899;DHT22;38763;53.096;6.062;2023-03-01T00:53:38;-0.80;99.90
52899;DHT22;38763;53.096;6.062;2023-03-01T00:56:06;-0.80;99.90
52899;DHT22;38763;53.096;6.062;2023-03-01T00:58:33;-0.90;99.90
52899;DHT22;38763;53.096;6.062;2023-03-01T01:00:59;-0.90;99.90
52899;DHT22;38763;53.096;6.062;2023-03-01T01:03:26;-0.90;99.90
52899;DHT22;38763;53.096;6.062;2023-03-01T01:05:52;-0.90;99.90
52899;DHT22;38763;53.096;6.062;2023-03-01T01:08:21;-1.00;99.90
52899;DHT22;38763;53.096;6.062;2023-03-01T01:10:47;-1.00;99.90
52899;DHT22;38763;53.096;6.062;2023-03-01T01:13:13;-1.00;99.90
52899;DHT22;38763;53.096;6.062;2023-03-01T01:15:39;-1.00;99.90
52899;DHT22;38763;53.096;6.062;2023-03-01T01:18:06;-1.10;99.90
52899;DHT22;38763;53.096;6.062;2023-03-01T01:20:32;-1.00;99.90
52899;DHT22;38763;53.096;6.062;2023-03-01T01:23:00;-1.10;99.90
52899;DHT22;38763;53.096;6.062;2023-03-01T01:25:25;-1.10;99.90
52899;DHT22;38763;53.096;6.062;2023-03-01T01:27:51;-1.00;99.90
52899;DHT22;38763;53.096;6.062;2023-03-01T01:30:17;-1.00;99.90
52899;DHT22;38763;53.096;6.062;2023-03-01T01:32:43;-1.00;99.90
52899;DHT22;38763;53.096;6.062;2023-03-01T01:35:08;-1.00;99.90
52899;DHT22;38763;53.096;6.062;2023-03-01T01:37:34;-1.00;99.90
52899;DHT22;38763;53.096;6.062;2023-03-01T01:40:01;-1.00;99.90
52899;DHT22;38763;53.096;6.062;2023-03-01T01:42:29;-1.10;99.90
52899;DHT22;38763;53.096;6.062;2023-03-01T01:47:54;-1.20;99.90
52899;DHT22;38763;53.096;6.062;2023-03-01T01:50:21;-1.20;99.90
52899;DHT22;38763;53.096;6.062;2023-03-01T01:52:48;-1.10;99.90
52899;DHT22;38763;53.096;6.062;2023-03-01T01:55:18;-1.10;99.90
52899;DHT22;38763;53.096;6.062;2023-03-01T01:57:50;-1.10;99.90
52899;DHT22;38763;53.096;6.062;2023-03-01T02:00:20;-1.20;99.90
52899;DHT22;38763;53.096;6.062;2023-03-01T02:02:47;-1.10;99.90
52899;DHT22;38763;53.096;6.062;2023-03-01T02:07:58;-1.30;99.90
52899;DHT22;38763;53.096;6.062;2023-03-01T02:10:24;-1.30;99.90
52899;DHT22;38763;53.096;6.062;2023-03-01T02:12:51;-1.30;99.90
52899;DHT22;38763;53.096;6.062;2023-03-01T02:15:18;-1.40;99.90
52899;DHT22;38763;53.096;6.062;2023-03-01T02:17:43;-1.30;99.90
52899;DHT22;38763;53.096;6.062;2023-03-01T02:22:54;-1.40;99.90
52899;DHT22;38763;53.096;6.062;2023-03-01T02:30:56;-1.40;99.90
52899;DHT22;38763;53.096;6.062;2023-03-01T02:33:41;-1.50;99.90
52899;DHT22;38763;53.096;6.062;2023-03-01T02:36:17;-1.50;99.90
52899;DHT22;38763;53.096;6.062;2023-03-01T02:38:43;-1.50;99.90
52899;DHT22;38763;53.096;6.062;2023-03-01T02:41:12;-1.50;99.90
52899;DHT22;38763;53.096;6.062;2023-03-01T02:43:39;-1.50;99.90
52899;DHT22;38763;53.096;6.062;2023-03-01T02:46:16;-1.50;99.90
52899;DHT22;38763;53.096;6.062;2023-03-01T02:48:47;-1.50;99.90
52899;DHT22;38763;53.096;6.062;2023-03-01T02:54:36;-1.50;99.90
52899;DHT22;38763;53.096;6.062;2023-03-01T02:57:05;-1.50;99.90
52899;DHT22;38763;53.096;6.062;2023-03-01T02:59:33;-1.50;99.90
52899;DHT22;38763;53.096;6.062;2023-03-01T03:02:05;-1.60;99.90
52899;DHT22;38763;53.096;6.062;2023-03-01T03:04:30;-1.60;99.90
52899;DHT22;38763;53.096;6.062;2023-03-01T03:06:56;-1.60;99.90
52899;DHT22;38763;53.096;6.062;2023-03-01T03:09:22;-1.70;99.90
52899;DHT22;38763;53.096;6.062;2023-03-01T03:11:47;-1.60;99.90
52899;DHT22;38763;53.096;6.062;2023-03-01T03:14:15;-1.60;99.90
52899;DHT22;38763;53.096;6.062;2023-03-01T03:16:43;-1.60;99.90
52899;DHT22;38763;53.096;6.062;2023-03-01T03:19:09;-1.60;99.90
52899;DHT22;38763;53.096;6.062;2023-03-01T03:21:35;-1.60;99.90
52899;DHT22;38763;53.096;6.062;2023-03-01T03:24:01;-1.60;99.90
52899;DHT22;38763;53.096;6.062;2023-03-01T03:26:27;-1.70;99.90
52899;DHT22;38763;53.096;6.062;2023-03-01T03:28:52;-1.70;99.90
52899;DHT22;38763;53.096;6.062;2023-03-01T03:31:18;-1.60;99.90
52899;DHT22;38763;53.096;6.062;2023-03-01T03:33:43;-1.60;99.90
52899;DHT22;38763;53.096;6.062;2023-03-01T03:36:09;-1.70;99.90
52899;DHT22;38763;53.096;6.062;2023-03-01T03:38:40;-1.60;99.90
52899;DHT22;38763;53.096;6.062;2023-03-01T03:41:07;-1.60;99.90
52899;DHT22;38763;53.096;6.062;2023-03-01T03:43:35;-1.60;99.90
52899;DHT22;38763;53.096;6.062;2023-03-01T03:46:02;-1.70;99.90
52899;DHT22;38763;53.096;6.062;2023-03-01T03:48:33;-1.70;99.90
52899;DHT22;38763;53.096;6.062;2023-03-01T03:50:58;-1.60;99.90
52899;DHT22;38763;53.096;6.062;2023-03-01T03:53:25;-1.70;99.90
52899;DHT22;38763;53.096;6.062;2023-03-01T03:55:52;-1.70;99.90
52899;DHT22;38763;53.096;6.062;2023-03-01T03:58:20;-1.70;99.90
52899;DHT22;38763;53.096;6.062;2023-03-01T04:00:48;-1.80;99.90
52899;DHT22;38763;53.096;6.062;2023-03-01T04:03:16;-1.90;99.90
52899;DHT22;38763;53.096;6.062;2023-03-01T04:05:42;-1.90;99.90
52899;DHT22;38763;53.096;6.062;2023-03-01T04:08:08;-1.90;99.90
52899;DHT22;38763;53.096;6.062;2023-03-01T04:10:40;-1.90;99.90
52899;DHT22;38763;53.096;6.062;2023-03-01T04:13:08;-1.80;99.90
52899;DHT22;38763;53.096;6.062;2023-03-01T04:15:35;-1.80;99.90
52899;DHT22;38763;53.096;6.062;2023-03-01T04:18:00;-1.80;99.90
52899;DHT22;38763;53.096;6.062;2023-03-01T04:20:28;-1.80;99.90
52899;DHT22;38763;53.096;6.062;2023-03-01T04:23:09;-1.90;99.90
52899;DHT22;38763;53.096;6.062;2023-03-01T04:25:59;-1.90;99.90
52899;DHT22;38763;53.096;6.062;2023-03-01T04:28:27;-1.90;99.90
52899;DHT22;38763;53.096;6.062;2023-03-01T04:30:54;-1.90;99.90
52899;DHT22;38763;53.096;6.062;2023-03-01T04:33:21;-1.80;99.90
52899;DHT22;38763;53.096;6.062;2023-03-01T04:35:48;-1.90;99.90
52899;DHT22;38763;53.096;6.062;2023-03-01T04:38:18;-1.90;99.90
52899;DHT22;38763;53.096;6.062;2023-03-01T04:40:44;-1.90;99.90
52899;DHT22;38763;53.096;6.062;2023-03-01T04:43:12;-1.90;99.90
52899;DHT22;38763;53.096;6.062;2023-03-01T04:45:40;-1.90;99.90
52899;DHT22;38763;53.096;6.062;2023-03-01T04:48:06;-1.80;99.90
52899;DHT22;38763;53.096;6.062;2023-03-01T04:50:33;-1.90;99.90
52899;DHT22;38763;53.096;6.062;2023-03-01T04:52:58;-1.90;99.90
52899;DHT22;38763;53.096;6.062;2023-03-01T04:55:26;-1.90;99.90
52899;DHT22;38763;53.096;6.062;2023-03-01T04:57:52;-1.90;99.90
52899;DHT22;38763;53.096;6.062;2023-03-01T05:00:19;-2.00;99.90
52899;DHT22;38763;53.096;6.062;2023-03-01T05:02:50;-2.00;99.90
52899;DHT22;38763;53.096;6.062;2023-03-01T05:05:44;-2.00;99.90
52899;DHT22;38763;53.096;6.062;2023-03-01T05:08:09;-2.10;99.90
52899;DHT22;38763;53.096;6.062;2023-03-01T05:10:43;-2.10;99.90
52899;DHT22;38763;53.096;6.062;2023-03-01T05:13:09;-2.10;99.90
52899;DHT22;38763;53.096;6.062;2023-03-01T05:15:34;-2.20;99.90
52899;DHT22;38763;53.096;6.062;2023-03-01T05:18:02;-2.20;99.90
52899;DHT22;38763;53.096;6.062;2023-03-01T05:20:29;-2.20;99.90
52899;DHT22;38763;53.096;6.062;2023-03-01T05:22:57;-2.30;99.90
52899;DHT22;38763;53.096;6.062;2023-03-01T05:25:24;-2.30;99.90
52899;DHT22;38763;53.096;6.062;2023-03-01T05:27:50;-2.40;99.90
52899;DHT22;38763;53.096;6.062;2023-03-01T05:30:16;-2.40;99.90
52899;DHT22;38763;53.096;6.062;2023-03-01T05:32:48;-2.40;99.90
52899;DHT22;38763;53.096;6.062;2023-03-01T05:35:15;-2.50;99.90
52899;DHT22;38763;53.096;6.062;2023-03-01T05:37:47;-2.50;99.90
52899;DHT22;38763;53.096;6.062;2023-03-01T05:40:15;-2.60;99.90
52899;DHT22;38763;53.096;6.062;2023-03-01T05:42:49;-2.60;99.90
52899;DHT22;38763;53.096;6.062;2023-03-01T05:45:16;-2.60;99.90
52899;DHT22;38763;53.096;6.062;2023-03-01T05:47:43;-2.60;99.90
52899;DHT22;38763;53.096;6.062;2023-03-01T05:50:14;-2.70;99.90
52899;DHT22;38763;53.096;6.062;2023-03-01T05:53:06;-2.70;99.90
52899;DHT22;38763;53.096;6.062;2023-03-01T05:55:31;-2.70;99.90
52899;DHT22;38763;53.096;6.062;2023-03-01T05:58:02;-2.60;99.90
52899;DHT22;38763;53.096;6.062;2023-03-01T06:00:29;-2.60;99.90
52899;DHT22;38763;53.096;6.062;2023-03-01T06:02:56;-2.60;99.90
52899;DHT22;38763;53.096;6.062;2023-03-01T06:05:23;-2.70;99.90
52899;DHT22;38763;53.096;6.062;2023-03-01T06:07:48;-2.60;99.90
52899;DHT22;38763;53.096;6.062;2023-03-01T06:10:15;-2.70;99.90
52899;DHT22;38763;53.096;6.062;2023-03-01T06:12:42;-2.70;99.90
52899;DHT22;38763;53.096;6.062;2023-03-01T06:15:10;-2.70;99.90
52899;DHT22;38763;53.096;6.062;2023-03-01T06:17:38;-2.70;99.90
52899;DHT22;38763;53.096;6.062;2023-03-01T06:20:13;-2.70;99.90
52899;DHT22;38763;53.096;6.062;2023-03-01T06:22:40;-2.80;99.90
52899;DHT22;38763;53.096;6.062;2023-03-01T06:25:07;-2.80;99.90
52899;DHT22;38763;53.096;6.062;2023-03-01T06:27:32;-2.70;99.90
52899;DHT22;38763;53.096;6.062;2023-03-01T06:29:58;-2.60;99.90
52899;DHT22;38763;53.096;6.062;2023-03-01T06:32:24;-2.70;99.90
52899;DHT22;38763;53.096;6.062;2023-03-01T06:34:50;-2.70;99.90
52899;DHT22;38763;53.096;6.062;2023-03-01T06:37:15;-2.60;99.90
52899;DHT22;38763;53.096;6.062;2023-03-01T06:39:41;-2.60;99.90
52899;DHT22;38763;53.096;6.062;2023-03-01T06:42:08;-2.50;99.90
52899;DHT22;38763;53.096;6.062;2023-03-01T06:44:36;-2.50;99.90
52899;DHT22;38763;53.096;6.062;2023-03-01T06:47:02;-2.60;99.90
52899;DHT22;38763;53.096;6.062;2023-03-01T06:49:28;-2.50;99.90
52899;DHT22;38763;53.096;6.062;2023-03-01T06:51:54;-2.50;99.90
52899;DHT22;38763;53.096;6.062;2023-03-01T06:54:20;-2.60;99.90
52899;DHT22;38763;53.096;6.062;2023-03-01T06:56:48;-2.60;99.90
52899;DHT22;38763;53.096;6.062;2023-03-01T06:59:15;-2.50;99.90
52899;DHT22;38763;53.096;6.062;2023-03-01T07:01:40;-2.50;99.90
52899;DHT22;38763;53.096;6.062;2023-03-01T07:04:06;-2.50;99.90
52899;DHT22;38763;53.096;6.062;2023-03-01T07:06:32;-2.40;99.90
52899;DHT22;38763;53.096;6.062;2023-03-01T07:08:58;-2.30;99.90
52899;DHT22;38763;53.096;6.062;2023-03-01T07:11:23;-2.20;99.90
52899;DHT22;38763;53.096;6.062;2023-03-01T07:13:49;-2.20;99.90
52899;DHT22;38763;53.096;6.062;2023-03-01T07:16:15;-2.10;99.90
52899;DHT22;38763;53.096;6.062;2023-03-01T07:18:41;-2.00;99.90
52899;DHT22;38763;53.096;6.062;2023-03-01T07:21:09;-2.00;99.90
52899;DHT22;38763;53.096;6.062;2023-03-01T07:23:36;-2.00;99.90
52899;DHT22;38763;53.096;6.062;2023-03-01T07:26:02;-1.90;99.90
52899;DHT22;38763;53.096;6.062;2023-03-01T07:28:27;-1.90;99.90
52899;DHT22;38763;53.096;6.062;2023-03-01T07:30:54;-1.90;99.90
52899;DHT22;38763;53.096;6.062;2023-03-01T07:33:19;-1.80;99.90
52899;DHT22;38763;53.096;6.062;2023-03-01T07:35:45;-1.70;99.90
52899;DHT22;38763;53.096;6.062;2023-03-01T07:38:11;-1.60;99.90
52899;DHT22;38763;53.096;6.062;2023-03-01T07:40:36;-1.50;99.90
52899;DHT22;38763;53.096;6.062;2023-03-01T07:43:02;-1.40;99.90
52899;DHT22;38763;53.096;6.062;2023-03-01T07:45:28;-1.40;99.90
52899;DHT22;38763;53.096;6.062;2023-03-01T07:47:55;-1.30;99.90
52899;DHT22;38763;53.096;6.062;2023-03-01T07:50:21;-1.20;99.90
52899;DHT22;38763;53.096;6.062;2023-03-01T07:52:48;-1.10;99.90
52899;DHT22;38763;53.096;6.062;2023-03-01T07:55:15;-1.00;99.90
52899;DHT22;38763;53.096;6.062;2023-03-01T07:57:42;-0.90;99.90
52899;DHT22;38763;53.096;6.062;2023-03-01T08:00:10;-0.80;99.90
52899;DHT22;38763;53.096;6.062;2023-03-01T08:02:36;-0.70;99.90
52899;DHT22;38763;53.096;6.062;2023-03-01T08:05:02;-0.50;99.90
52899;DHT22;38763;53.096;6.062;2023-03-01T08:07:28;-0.40;99.90
52899;DHT22;38763;53.096;6.062;2023-03-01T08:09:53;-0.20;99.90
52899;DHT22;38763;53.096;6.062;2023-03-01T08:12:19;-0.10;99.90
52899;DHT22;38763;53.096;6.062;2023-03-01T08:14:44;-0.10;99.90
52899;DHT22;38763;53.096;6.062;2023-03-01T08:17:10;0.10;99.90
52899;DHT22;38763;53.096;6.062;2023-03-01T08:19:38;0.20;99.90
52899;DHT22;38763;53.096;6.062;2023-03-01T08:22:04;0.30;99.90
52899;DHT22;38763;53.096;6.062;2023-03-01T08:24:30;0.30;99.90
52899;DHT22;38763;53.096;6.062;2023-03-01T08:26:55;0.40;99.90
52899;DHT22;38763;53.096;6.062;2023-03-01T08:29:21;0.50;99.90
52899;DHT22;38763;53.096;6.062;2023-03-01T08:31:48;0.50;99.90
52899;DHT22;38763;53.096;6.062;2023-03-01T08:34:17;0.50;99.90
52899;DHT22;38763;53.096;6.062;2023-03-01T08:36:45;0.60;99.90
52899;DHT22;38763;53.096;6.062;2023-03-01T08:39:16;0.70;99.90
52899;DHT22;38763;53.096;6.062;2023-03-01T08:41:42;0.70;99.90
52899;DHT22;38763;53.096;6.062;2023-03-01T08:44:09;0.70;99.90
52899;DHT22;38763;53.096;6.062;2023-03-01T08:46:37;0.80;99.90
52899;DHT22;38763;53.096;6.062;2023-03-01T08:49:08;0.80;99.90
52899;DHT22;38763;53.096;6.062;2023-03-01T08:51:34;0.90;99.90
52899;DHT22;38763;53.096;6.062;2023-03-01T08:54:21;1.00;99.90
52899;DHT22;38763;53.096;6.062;2023-03-01T08:56:48;1.10;99.90
52899;DHT22;38763;53.096;6.062;2023-03-01T08:59:15;1.10;99.90
52899;DHT22;38763;53.096;6.062;2023-03-01T09:01:41;1.20;99.90
52899;DHT22;38763;53.096;6.062;2023-03-01T09:04:09;1.20;99.90
52899;DHT22;38763;53.096;6.062;2023-03-01T09:06:35;1.20;99.90
52899;DHT22;38763;53.096;6.062;2023-03-01T09:09:02;1.20;99.90
52899;DHT22;38763;53.096;6.062;2023-03-01T09:11:28;1.20;99.90
52899;DHT22;38763;53.096;6.062;2023-03-01T09:13:55;1.30;99.90
52899;DHT22;38763;53.096;6.062;2023-03-01T09:16:21;1.40;99.90
52899;DHT22;38763;53.096;6.062;2023-03-01T09:18:52;1.50;99.90
52899;DHT22;38763;53.096;6.062;2023-03-01T09:21:19;1.60;99.90
52899;DHT22;38763;53.096;6.062;2023-03-01T09:23:47;1.60;99.90
52899;DHT22;38763;53.096;6.062;2023-03-01T09:26:15;1.70;99.90
52899;DHT22;38763;53.096;6.062;2023-03-01T09:28:51;1.80;99.90
52899;DHT22;38763;53.096;6.062;2023-03-01T09:31:19;1.90;99.90
52899;DHT22;38763;53.096;6.062;2023-03-01T09:33:49;2.00;99.90
52899;DHT22;38763;53.096;6.062;2023-03-01T09:36:18;2.10;99.90
52899;DHT22;38763;53.096;6.062;2023-03-01T09:38:44;2.20;99.90
52899;DHT22;38763;53.096;6.062;2023-03-01T09:46:45;2.30;99.90
52899;DHT22;38763;53.096;6.062;2023-03-01T09:49:24;2.40;99.90
52899;DHT22;38763;53.096;6.062;2023-03-01T09:51:59;2.40;99.90
52899;DHT22;38763;53.096;6.062;2023-03-01T09:54:26;2.50;99.90
52899;DHT22;38763;53.096;6.062;2023-03-01T10:00:13;2.60;99.90
52899;DHT22;38763;53.096;6.062;2023-03-01T10:02:49;2.80;99.90
52899;DHT22;38763;53.096;6.062;2023-03-01T10:05:39;2.70;99.90
52899;DHT22;38763;53.096;6.062;2023-03-01T10:11:09;3.00;99.90
52899;DHT22;38763;53.096;6.062;2023-03-01T10:13:48;3.00;99.90
52899;DHT22;38763;53.096;6.062;2023-03-01T10:16:57;3.10;99.90
52899;DHT22;38763;53.096;6.062;2023-03-01T10:19:32;3.20;99.90
52899;DHT22;38763;53.096;6.062;2023-03-01T10:24:49;3.30;99.90
52899;DHT22;38763;53.096;6.062;2023-03-01T10:27:22;3.40;99.90
52899;DHT22;38763;53.096;6.062;2023-03-01T10:30:21;3.50;99.90
52899;DHT22;38763;53.096;6.062;2023-03-01T10:32:49;3.80;99.90
52899;DHT22;38763;53.096;6.062;2023-03-01T10:38:18;3.90;99.90
52899;DHT22;38763;53.096;6.062;2023-03-01T10:40:53;4.00;99.90
52899;DHT22;38763;53.096;6.062;2023-03-01T10:43:19;3.90;99.90
52899;DHT22;38763;53.096;6.062;2023-03-01T10:45:46;4.10;99.90
52899;DHT22;38763;53.096;6.062;2023-03-01T10:48:20;4.20;99.90
52899;DHT22;38763;53.096;6.062;2023-03-01T10:50:51;4.20;99.90
52899;DHT22;38763;53.096;6.062;2023-03-01T10:53:41;4.30;99.90
52899;DHT22;38763;53.096;6.062;2023-03-01T10:56:10;4.40;99.90
52899;DHT22;38763;53.096;6.062;2023-03-01T10:58:39;4.40;99.90
52899;DHT22;38763;53.096;6.062;2023-03-01T11:01:25;4.50;99.90
52899;DHT22;38763;53.096;6.062;2023-03-01T11:06:32;4.50;99.90
52899;DHT22;38763;53.096;6.062;2023-03-01T11:09:14;4.60;99.90
52899;DHT22;38763;53.096;6.062;2023-03-01T11:11:40;4.60;99.90
52899;DHT22;38763;53.096;6.062;2023-03-01T11:14:24;4.70;99.90
52899;DHT22;38763;53.096;6.062;2023-03-01T11:17:15;4.70;99.90
52899;DHT22;38763;53.096;6.062;2023-03-01T11:19:42;4.80;99.90
52899;DHT22;38763;53.096;6.062;2023-03-01T11:22:16;4.80;99.90
52899;DHT22;38763;53.096;6.062;2023-03-01T11:24:54;4.90;99.90
52899;DHT22;38763;53.096;6.062;2023-03-01T11:27:24;5.00;99.90
52899;DHT22;38763;53.096;6.062;2023-03-01T11:30:03;5.10;99.90
52899;DHT22;38763;53.096;6.062;2023-03-01T11:32:45;5.00;99.90
52899;DHT22;38763;53.096;6.062;2023-03-01T11:35:19;5.20;99.90
52899;DHT22;38763;53.096;6.062;2023-03-01T11:41:19;5.20;99.90
52899;DHT22;38763;53.096;6.062;2023-03-01T11:46:26;5.40;99.90
52899;DHT22;38763;53.096;6.062;2023-03-01T11:52:06;5.30;99.90
52899;DHT22;38763;53.096;6.062;2023-03-01T12:03:28;5.40;99.90
52899;DHT22;38763;53.096;6.062;2023-03-01T12:11:56;5.60;99.90
52899;DHT22;38763;53.096;6.062;2023-03-01T12:17:52;5.60;99.90
52899;DHT22;38763;53.096;6.062;2023-03-01T12:20:28;5.70;99.90
52899;DHT22;38763;53.096;6.062;2023-03-01T12:34:22;5.80;99.90
52899;DHT22;38763;53.096;6.062;2023-03-01T12:42:43;5.90;99.90
52899;DHT22;38763;53.096;6.062;2023-03-01T12:45:27;5.90;99.90
52899;DHT22;38763;53.096;6.062;2023-03-01T12:48:22;5.90;99.90
52899;DHT22;38763;53.096;6.062;2023-03-01T12:50:52;6.00;99.90
52899;DHT22;38763;53.096;6.062;2023-03-01T12:55:51;6.00;99.90
52899;DHT22;38763;53.096;6.062;2023-03-01T13:07:19;6.30;99.90
52899;DHT22;38763;53.096;6.062;2023-03-01T13:12:46;6.30;99.90
52899;DHT22;38763;53.096;6.062;2023-03-01T13:17:51;6.20;99.90
52899;DHT22;38763;53.096;6.062;2023-03-01T13:20:34;6.30;99.90
52899;DHT22;38763;53.096;6.062;2023-03-01T13:31:04;6.30;99.90
52899;DHT22;38763;53.096;6.062;2023-03-01T13:35:57;6.40;99.90
52899;DHT22;38763;53.096;6.062;2023-03-01T13:49:59;6.40;99.90
52899;DHT22;38763;53.096;6.062;2023-03-01T13:52:42;6.50;99.90
52899;DHT22;38763;53.096;6.062;2023-03-01T13:55:19;6.50;99.90
52899;DHT22;38763;53.096;6.062;2023-03-01T13:57:54;6.50;99.90
52899;DHT22;38763;53.096;6.062;2023-03-01T14:00:36;6.50;99.90
52899;DHT22;38763;53.096;6.062;2023-03-01T14:05:38;6.60;99.90
52899;DHT22;38763;53.096;6.062;2023-03-01T14:08:05;6.60;99.90
52899;DHT22;38763;53.096;6.062;2023-03-01T14:10:49;6.60;99.90
52899;DHT22;38763;53.096;6.062;2023-03-01T14:19:21;6.70;99.90
52899;DHT22;38763;53.096;6.062;2023-03-01T14:24:39;6.70;99.90
52899;DHT22;38763;53.096;6.062;2023-03-01T14:27:12;6.80;99.90
52899;DHT22;38763;53.096;6.062;2023-03-01T14:29:39;6.70;99.90
52899;DHT22;38763;53.096;6.062;2023-03-01T14:32:19;6.70;99.90
52899;DHT22;38763;53.096;6.062;2023-03-01T14:34:48;6.70;99.90
52899;DHT22;38763;53.096;6.062;2023-03-01T14:37:24;6.70;99.90
52899;DHT22;38763;53.096;6.062;2023-03-01T14:39:51;6.60;99.90
52899;DHT22;38763;53.096;6.062;2023-03-01T14:42:18;6.60;99.90
52899;DHT22;38763;53.096;6.062;2023-03-01T14:44:50;6.60;99.90
52899;DHT22;38763;53.096;6.062;2023-03-01T14:47:29;6.60;99.90
52899;DHT22;38763;53.096;6.062;2023-03-01T14:49:59;6.70;99.90
52899;DHT22;38763;53.096;6.062;2023-03-01T14:52:33;6.70;99.90
52899;DHT22;38763;53.096;6.062;2023-03-01T14:55:00;6.70;99.90
52899;DHT22;38763;53.096;6.062;2023-03-01T14:57:27;6.80;99.90
52899;DHT22;38763;53.096;6.062;2023-03-01T14:59:55;6.70;99.90
52899;DHT22;38763;53.096;6.062;2023-03-01T15:02:24;6.70;99.90
52899;DHT22;38763;53.096;6.062;2023-03-01T15:04:54;6.70;99.90
52899;DHT22;38763;53.096;6.062;2023-03-01T15:07:24;6.70;99.90
52899;DHT22;38763;53.096;6.062;2023-03-01T15:09:51;6.70;99.90
52899;DHT22;38763;53.096;6.062;2023-03-01T15:12:37;6.70;99.90
52899;DHT22;38763;53.096;6.062;2023-03-01T15:15:34;6.70;99.90
52899;DHT22;38763;53.096;6.062;2023-03-01T15:18:03;6.70;99.90
52899;DHT22;38763;53.096;6.062;2023-03-01T15:20:30;6.70;99.90
52899;DHT22;38763;53.096;6.062;2023-03-01T15:23:01;6.60;99.90
52899;DHT22;38763;53.096;6.062;2023-03-01T15:25:29;6.70;99.90
52899;DHT22;38763;53.096;6.062;2023-03-01T15:27:57;6.70;99.90
52899;DHT22;38763;53.096;6.062;2023-03-01T15:30:34;6.70;99.90
52899;DHT22;38763;53.096;6.062;2023-03-01T15:35:53;6.60;99.90
52899;DHT22;38763;53.096;6.062;2023-03-01T15:38:52;6.60;99.90
52899;DHT22;38763;53.096;6.062;2023-03-01T15:41:31;6.60;99.90
52899;DHT22;38763;53.096;6.062;2023-03-01T15:43:58;6.70;99.90
52899;DHT22;38763;53.096;6.062;2023-03-01T15:48:59;6.50;99.90
52899;DHT22;38763;53.096;6.062;2023-03-01T15:51:34;6.50;99.90
52899;DHT22;38763;53.096;6.062;2023-03-01T15:54:16;6.50;99.90
52899;DHT22;38763;53.096;6.062;2023-03-01T15:56:43;6.50;99.90
52899;DHT22;38763;53.096;6.062;2023-03-01T15:59:10;6.50;99.90
52899;DHT22;38763;53.096;6.062;2023-03-01T16:01:38;6.40;99.90
52899;DHT22;38763;53.096;6.062;2023-03-01T16:04:04;6.40;99.90
52899;DHT22;38763;53.096;6.062;2023-03-01T16:06:30;6.40;99.90
52899;DHT22;38763;53.096;6.062;2023-03-01T16:08:55;6.50;99.90
52899;DHT22;38763;53.096;6.062;2023-03-01T16:11:21;6.40;99.90
52899;DHT22;38763;53.096;6.062;2023-03-01T16:13:47;6.40;99.90
52899;DHT22;38763;53.096;6.062;2023-03-01T16:16:14;6.40;99.90
52899;DHT22;38763;53.096;6.062;2023-03-01T16:18:45;6.40;99.90
52899;DHT22;38763;53.096;6.062;2023-03-01T16:21:29;6.30;99.90
52899;DHT22;38763;53.096;6.062;2023-03-01T16:23:55;6.30;99.90
52899;DHT22;38763;53.096;6.062;2023-03-01T16:26:21;6.30;99.90
52899;DHT22;38763;53.096;6.062;2023-03-01T16:28:47;6.20;99.90
52899;DHT22;38763;53.096;6.062;2023-03-01T16:31:17;6.20;99.90
52899;DHT22;38763;53.096;6.062;2023-03-01T16:33:43;6.10;99.90
52899;DHT22;38763;53.096;6.062;2023-03-01T16:36:16;6.10;99.90
52899;DHT22;38763;53.096;6.062;2023-03-01T16:38:42;6.20;99.90
52899;DHT22;38763;53.096;6.062;2023-03-01T16:41:16;6.10;99.90
52899;DHT22;38763;53.096;6.062;2023-03-01T16:43:43;6.00;99.90
52899;DHT22;38763;53.096;6.062;2023-03-01T16:46:16;5.90;99.90
52899;DHT22;38763;53.096;6.062;2023-03-01T16:48:43;5.90;99.90
52899;DHT22;38763;53.096;6.062;2023-03-01T16:51:09;5.90;99.90
52899;DHT22;38763;53.096;6.062;2023-03-01T16:53:35;5.80;99.90
52899;DHT22;38763;53.096;6.062;2023-03-01T16:56:03;5.80;99.90
52899;DHT22;38763;53.096;6.062;2023-03-01T16:58:30;5.80;99.90
52899;DHT22;38763;53.096;6.062;2023-03-01T17:00:56;5.70;99.90
52899;DHT22;38763;53.096;6.062;2023-03-01T17:03:23;5.70;99.90
52899;DHT22;38763;53.096;6.062;2023-03-01T17:05:50;5.70;99.90
52899;DHT22;38763;53.096;6.062;2023-03-01T17:08:16;5.70;99.90
52899;DHT22;38763;53.096;6.062;2023-03-01T17:10:42;5.70;99.90
52899;DHT22;38763;53.096;6.062;2023-03-01T17:13:08;5.50;99.90
52899;DHT22;38763;53.096;6.062;2023-03-01T17:15:37;5.50;99.90
52899;DHT22;38763;53.096;6.062;2023-03-01T17:18:03;5.40;99.90
52899;DHT22;38763;53.096;6.062;2023-03-01T17:20:28;5.30;99.90
52899;DHT22;38763;53.096;6.062;2023-03-01T17:22:54;5.20;99.90
52899;DHT22;38763;53.096;6.062;2023-03-01T17:25:20;5.20;99.90
52899;DHT22;38763;53.096;6.062;2023-03-01T17:27:45;5.10;99.90
52899;DHT22;38763;53.096;6.062;2023-03-01T17:30:12;5.00;99.90
52899;DHT22;38763;53.096;6.062;2023-03-01T17:32:38;5.00;99.90
52899;DHT22;38763;53.096;6.062;2023-03-01T17:35:04;4.90;99.90
52899;DHT22;38763;53.096;6.062;2023-03-01T17:37:30;4.90;99.90
52899;DHT22;38763;53.096;6.062;2023-03-01T17:39:55;4.90;99.90
52899;DHT22;38763;53.096;6.062;2023-03-01T17:42:21;4.80;99.90
52899;DHT22;38763;53.096;6.062;2023-03-01T17:44:46;4.70;99.90
52899;DHT22;38763;53.096;6.062;2023-03-01T17:47:12;4.70;99.90
52899;DHT22;38763;53.096;6.062;2023-03-01T17:49:38;4.70;99.90
52899;DHT22;38763;53.096;6.062;2023-03-01T17:52:04;4.60;99.90
52899;DHT22;38763;53.096;6.062;2023-03-01T17:54:30;4.60;99.90
52899;DHT22;38763;53.096;6.062;2023-03-01T17:56:58;4.50;99.90
52899;DHT22;38763;53.096;6.062;2023-03-01T17:59:24;4.50;99.90
52899;DHT22;38763;53.096;6.062;2023-03-01T18:01:56;4.50;99.90
52899;DHT22;38763;53.096;6.062;2023-03-01T18:04:22;4.30;99.90
52899;DHT22;38763;53.096;6.062;2023-03-01T18:06:48;4.30;99.90
52899;DHT22;38763;53.096;6.062;2023-03-01T18:09:13;4.30;99.90